sensor_id;sensor_type;location;lat;lon;timestamp;temperature;humidity
42141;DHT22;27809;51.864;5.646;2024-01-11T00:00:09;-2.90;1.00
42141;DHT22;27809;51.864;5.646;2024-01-11T00:02:35;-2.90;1.00
42141;DHT22;27809;51.864;5.646;2024-01-11T00:05:00;-3.00;1.00
42141;DHT22;27809;51.864;5.646;2024-01-11T00:07:26;-3.00;1.00
42141;DHT22;27809;51.864;5.646;2024-01-11T00:09:51;-3.00;1.00
42141;DHT22;27809;51.864;5.646;2024-01-11T00:12:17;-3.00;1.00
42141;DHT22;27809;51.864;5.646;2024-01-11T00:14:42;-3.00;1.00
42141;DHT22;27809;51.864;5.646;2024-01-11T00:17:08;-3.10;1.00
42141;DHT22;27809;51.864;5.646;2024-01-11T00:19:33;-3.10;1.00
42141;DHT22;27809;51.864;5.646;2024-01-11T00:21:59;-3.10;1.00
42141;DHT22;27809;51.864;5.646;2024-01-11T00:24:25;-3.10;1.00
42141;DHT22;27809;51.864;5.646;2024-01-11T00:26:50;-3.00;1.00
42141;DHT22;27809;51.864;5.646;2024-01-11T00:29:16;-3.00;1.00
42141;DHT22;27809;51.864;5.646;2024-01-11T00:31:41;-2.90;1.00
42141;DHT22;27809;51.864;5.646;2024-01-11T00:34:07;-2.90;1.00
42141;DHT22;27809;51.864;5.646;2024-01-11T00:36:32;-2.90;1.00
42141;DHT22;27809;51.864;5.646;2024-01-11T00:38:58;-2.90;1.00
42141;DHT22;27809;51.864;5.646;2024-01-11T00:41:25;-2.90;1.00
42141;DHT22;27809;51.864;5.646;2024-01-11T00:43:50;-2.90;1.00
42141;DHT22;27809;51.864;5.646;2024-01-11T00:46:16;-2.90;1.00
42141;DHT22;27809;51.864;5.646;2024-01-11T00:48:41;-2.80;1.00
42141;DHT22;27809;51.864;5.646;2024-01-11T00:51:07;-2.70;1.00
42141;DHT22;27809;51.864;5.646;2024-01-11T00:53:32;-2.70;1.00
42141;DHT22;27809;51.864;5.646;2024-01-11T00:55:59;-2.60;1.00
42141;DHT22;27809;51.864;5.646;2024-01-11T00:58:25;-2.60;1.00
42141;DHT22;27809;51.864;5.646;2024-01-11T01:00:50;-2.70;1.00
42141;DHT22;27809;51.864;5.646;2024-01-11T01:03:18;-2.90;1.00
42141;DHT22;27809;51.864;5.646;2024-01-11T01:05:45;-3.00;1.00
42141;DHT22;27809;51.864;5.646;2024-01-11T01:08:11;-3.10;1.00
42141;DHT22;27809;51.864;5.646;2024-01-11T01:10:36;-3.10;1.00
42141;DHT22;27809;51.864;5.646;2024-01-11T01:13:02;-3.20;1.00
42141;DHT22;27809;51.864;5.646;2024-01-11T01:15:28;-3.30;1.00
42141;DHT22;27809;51.864;5.646;2024-01-11T01:17:53;-3.40;1.00
42141;DHT22;27809;51.864;5.646;2024-01-11T01:20:19;-3.50;1.00
42141;DHT22;27809;51.864;5.646;2024-01-11T01:22:44;-3.60;1.00
42141;DHT22;27809;51.864;5.646;2024-01-11T01:25:10;-3.70;1.00
42141;DHT22;27809;51.864;5.646;2024-01-11T01:27:36;-3.70;1.00
42141;DHT22;27809;51.864;5.646;2024-01-11T01:30:01;-3.60;1.00
42141;DHT22;27809;51.864;5.646;2024-01-11T01:32:27;-3.60;1.00
42141;DHT22;27809;51.864;5.646;2024-01-11T01:34:53;-3.50;1.00
42141;DHT22;27809;51.864;5.646;2024-01-11T01:37:18;-3.40;1.00
42141;DHT22;27809;51.864;5.646;2024-01-11T01:39:44;-3.30;1.00
42141;DHT22;27809;51.864;5.646;2024-01-11T01:42:09;-3.20;1.00
42141;DHT22;27809;51.864;5.646;2024-01-11T01:44:35;-3.10;1.00
42141;DHT22;27809;51.864;5.646;2024-01-11T01:47:01;-3.10;1.00
42141;DHT22;27809;51.864;5.646;2024-01-11T01:49:28;-3.10;1.00
42141;DHT22;27809;51.864;5.646;2024-01-11T01:51:53;-3.00;1.00
42141;DHT22;27809;51.864;5.646;2024-01-11T01:54:21;-3.00;1.00
42141;DHT22;27809;51.864;5.646;2024-01-11T01:56:48;-3.00;1.00
42141;DHT22;27809;51.864;5.646;2024-01-11T01:59:14;-3.00;1.00
42141;DHT22;27809;51.864;5.646;2024-01-11T02:01:41;-2.90;1.00
42141;DHT22;27809;51.864;5.646;2024-01-11T02:04:06;-2.90;1.00
42141;DHT22;27809;51.864;5.646;2024-01-11T02:06:33;-2.90;1.00
42141;DHT22;27809;51.864;5.646;2024-01-11T02:09:00;-2.80;1.00
42141;DHT22;27809;51.864;5.646;2024-01-11T02:11:28;-2.80;1.00
42141;DHT22;27809;51.864;5.646;2024-01-11T02:13:54;-2.80;1.00
42141;DHT22;27809;51.864;5.646;2024-01-11T02:16:20;-2.80;1.00
42141;DHT22;27809;51.864;5.646;2024-01-11T02:18:46;-2.90;1.00
42141;DHT22;27809;51.864;5.646;2024-01-11T02:21:13;-2.80;1.00
42141;DHT22;27809;51.864;5.646;2024-01-11T02:23:43;-2.80;1.00
42141;DHT22;27809;51.864;5.646;2024-01-11T02:26:13;-2.80;1.00
42141;DHT22;27809;51.864;5.646;2024-01-11T02:28:43;-2.80;1.00
42141;DHT22;27809;51.864;5.646;2024-01-11T02:31:09;-2.80;1.00
42141;DHT22;27809;51.864;5.646;2024-01-11T02:33:35;-2.80;1.00
42141;DHT22;27809;51.864;5.646;2024-01-11T02:36:00;-2.80;1.00
42141;DHT22;27809;51.864;5.646;2024-01-11T02:38:26;-2.80;1.00
42141;DHT22;27809;51.864;5.646;2024-01-11T02:40:53;-2.80;1.00
42141;DHT22;27809;51.864;5.646;2024-01-11T02:43:19;-2.80;1.00
42141;DHT22;27809;51.864;5.646;2024-01-11T02:45:45;-2.80;1.00
42141;DHT22;27809;51.864;5.646;2024-01-11T02:48:11;-2.90;1.00
42141;DHT22;27809;51.864;5.646;2024-01-11T02:50:36;-2.90;1.00
42141;DHT22;27809;51.864;5.646;2024-01-11T02:53:02;-3.00;1.00
42141;DHT22;27809;51.864;5.646;2024-01-11T02:55:28;-3.10;1.00
42141;DHT22;27809;51.864;5.646;2024-01-11T02:57:53;-3.20;1.00
42141;DHT22;27809;51.864;5.646;2024-01-11T03:00:19;-3.30;1.00
42141;DHT22;27809;51.864;5.646;2024-01-11T03:02:44;-3.40;1.00
42141;DHT22;27809;51.864;5.646;2024-01-11T03:05:10;-3.40;1.00
42141;DHT22;27809;51.864;5.646;2024-01-11T03:07:36;-3.50;1.00
42141;DHT22;27809;51.864;5.646;2024-01-11T03:10:01;-3.50;1.00
42141;DHT22;27809;51.864;5.646;2024-01-11T03:12:27;-3.60;1.00
42141;DHT22;27809;51.864;5.646;2024-01-11T03:14:54;-3.60;1.00
42141;DHT22;27809;51.864;5.646;2024-01-11T03:17:19;-3.70;1.00
42141;DHT22;27809;51.864;5.646;2024-01-11T03:19:45;-3.80;1.00
42141;DHT22;27809;51.864;5.646;2024-01-11T03:22:11;-3.90;1.00
42141;DHT22;27809;51.864;5.646;2024-01-11T03:24:38;-4.00;1.00
42141;DHT22;27809;51.864;5.646;2024-01-11T03:27:04;-4.00;1.00
42141;DHT22;27809;51.864;5.646;2024-01-11T03:29:31;-4.10;1.00
42141;DHT22;27809;51.864;5.646;2024-01-11T03:31:56;-4.10;1.00
42141;DHT22;27809;51.864;5.646;2024-01-11T03:34:22;-4.20;1.00
42141;DHT22;27809;51.864;5.646;2024-01-11T03:36:48;-4.20;1.00
42141;DHT22;27809;51.864;5.646;2024-01-11T03:39:13;-4.20;1.00
42141;DHT22;27809;51.864;5.646;2024-01-11T03:41:43;-4.20;1.00
42141;DHT22;27809;51.864;5.646;2024-01-11T03:44:09;-4.20;1.00
42141;DHT22;27809;51.864;5.646;2024-01-11T03:46:35;-4.30;1.00
42141;DHT22;27809;51.864;5.646;2024-01-11T03:49:00;-4.40;1.00
42141;DHT22;27809;51.864;5.646;2024-01-11T03:51:26;-4.50;1.00
42141;DHT22;27809;51.864;5.646;2024-01-11T03:53:51;-4.50;1.00
42141;DHT22;27809;51.864;5.646;2024-01-11T03:56:17;-4.60;1.00
42141;DHT22;27809;51.864;5.646;2024-01-11T03:58:42;-4.60;1.00
42141;DHT22;27809;51.864;5.646;2024-01-11T04:01:10;-4.60;1.00
42141;DHT22;27809;51.864;5.646;2024-01-11T04:03:36;-4.60;1.00
42141;DHT22;27809;51.864;5.646;2024-01-11T04:06:03;-4.60;1.00
42141;DHT22;27809;51.864;5.646;2024-01-11T04:08:28;-4.60;1.00
42141;DHT22;27809;51.864;5.646;2024-01-11T04:10:54;-4.50;1.00
42141;DHT22;27809;51.864;5.646;2024-01-11T04:13:19;-4.60;1.00
42141;DHT22;27809;51.864;5.646;2024-01-11T04:15:45;-4.50;1.00
42141;DHT22;27809;51.864;5.646;2024-01-11T04:18:11;-4.60;1.00
42141;DHT22;27809;51.864;5.646;2024-01-11T04:20:37;-4.50;1.00
42141;DHT22;27809;51.864;5.646;2024-01-11T04:23:02;-4.50;1.00
42141;DHT22;27809;51.864;5.646;2024-01-11T04:25:28;-4.50;1.00
42141;DHT22;27809;51.864;5.646;2024-01-11T04:27:53;-4.60;1.00
42141;DHT22;27809;51.864;5.646;2024-01-11T04:30:19;-4.60;1.00
42141;DHT22;27809;51.864;5.646;2024-01-11T04:32:44;-4.70;1.00
42141;DHT22;27809;51.864;5.646;2024-01-11T04:35:10;-4.70;1.00
42141;DHT22;27809;51.864;5.646;2024-01-11T04:37:36;-4.80;1.00
42141;DHT22;27809;51.864;5.646;2024-01-11T04:40:01;-4.80;1.00
42141;DHT22;27809;51.864;5.646;2024-01-11T04:42:28;-4.80;1.00
42141;DHT22;27809;51.864;5.646;2024-01-11T04:44:54;-4.80;1.00
42141;DHT22;27809;51.864;5.646;2024-01-11T04:47:20;-4.80;1.00
42141;DHT22;27809;51.864;5.646;2024-01-11T04:49:45;-4.80;1.00
42141;DHT22;27809;51.864;5.646;2024-01-11T04:52:11;-4.80;1.00
42141;DHT22;27809;51.864;5.646;2024-01-11T04:54:36;-4.80;1.00
42141;DHT22;27809;51.864;5.646;2024-01-11T04:57:03;-4.80;1.00
42141;DHT22;27809;51.864;5.646;2024-01-11T04:59:29;-4.90;1.00
42141;DHT22;27809;51.864;5.646;2024-01-11T05:01:55;-4.90;1.00
42141;DHT22;27809;51.864;5.646;2024-01-11T05:04:20;-4.80;1.00
42141;DHT22;27809;51.864;5.646;2024-01-11T05:06:46;-4.70;1.00
42141;DHT22;27809;51.864;5.646;2024-01-11T05:09:12;-4.60;1.00
42141;DHT22;27809;51.864;5.646;2024-01-11T05:11:37;-4.60;1.00
42141;DHT22;27809;51.864;5.646;2024-01-11T05:14:03;-4.60;1.00
42141;DHT22;27809;51.864;5.646;2024-01-11T05:16:29;-4.60;1.00
42141;DHT22;27809;51.864;5.646;2024-01-11T05:18:57;-4.70;1.00
42141;DHT22;27809;51.864;5.646;2024-01-11T05:21:23;-4.60;1.00
42141;DHT22;27809;51.864;5.646;2024-01-11T05:23:49;-4.60;1.00
42141;DHT22;27809;51.864;5.646;2024-01-11T05:26:15;-4.60;1.00
42141;DHT22;27809;51.864;5.646;2024-01-11T05:28:41;-4.60;1.00
42141;DHT22;27809;51.864;5.646;2024-01-11T05:31:14;-4.70;1.00
42141;DHT22;27809;51.864;5.646;2024-01-11T05:33:40;-4.70;1.00
42141;DHT22;27809;51.864;5.646;2024-01-11T05:36:06;-4.80;1.00
42141;DHT22;27809;51.864;5.646;2024-01-11T05:38:33;-4.80;1.00
42141;DHT22;27809;51.864;5.646;2024-01-11T05:40:59;-4.80;1.00
42141;DHT22;27809;51.864;5.646;2024-01-11T05:43:25;-4.80;1.00
42141;DHT22;27809;51.864;5.646;2024-01-11T05:45:50;-4.80;1.00
42141;DHT22;27809;51.864;5.646;2024-01-11T05:48:16;-4.90;1.00
42141;DHT22;27809;51.864;5.646;2024-01-11T05:50:45;-4.90;1.00
42141;DHT22;27809;51.864;5.646;2024-01-11T05:53:12;-4.90;1.00
42141;DHT22;27809;51.864;5.646;2024-01-11T05:55:38;-4.90;1.00
42141;DHT22;27809;51.864;5.646;2024-01-11T05:58:04;-5.00;1.00
42141;DHT22;27809;51.864;5.646;2024-01-11T06:00:30;-4.90;1.00
42141;DHT22;27809;51.864;5.646;2024-01-11T06:02:55;-5.00;1.00
42141;DHT22;27809;51.864;5.646;2024-01-11T06:05:21;-5.00;1.00
42141;DHT22;27809;51.864;5.646;2024-01-11T06:07:46;-5.00;1.00
42141;DHT22;27809;51.864;5.646;2024-01-11T06:10:13;-5.00;1.00
42141;DHT22;27809;51.864;5.646;2024-01-11T06:12:39;-5.00;1.00
42141;DHT22;27809;51.864;5.646;2024-01-11T06:15:05;-5.00;1.00
42141;DHT22;27809;51.864;5.646;2024-01-11T06:17:31;-5.00;1.00
42141;DHT22;27809;51.864;5.646;2024-01-11T06:19:57;-5.00;1.00
42141;DHT22;27809;51.864;5.646;2024-01-11T06:22:22;-5.00;1.00
42141;DHT22;27809;51.864;5.646;2024-01-11T06:24:48;-5.10;1.00
42141;DHT22;27809;51.864;5.646;2024-01-11T06:27:14;-5.10;1.00
42141;DHT22;27809;51.864;5.646;2024-01-11T06:29:39;-5.10;1.00
42141;DHT22;27809;51.864;5.646;2024-01-11T06:32:05;-5.10;1.00
42141;DHT22;27809;51.864;5.646;2024-01-11T06:34:31;-5.10;1.00
42141;DHT22;27809;51.864;5.646;2024-01-11T06:36:57;-5.20;1.00
42141;DHT22;27809;51.864;5.646;2024-01-11T06:39:22;-5.10;1.00
42141;DHT22;27809;51.864;5.646;2024-01-11T06:41:48;-5.10;1.00
42141;DHT22;27809;51.864;5.646;2024-01-11T06:44:14;-5.10;1.00
42141;DHT22;27809;51.864;5.646;2024-01-11T06:46:39;-5.10;1.00
42141;DHT22;27809;51.864;5.646;2024-01-11T06:49:07;-5.10;1.00
42141;DHT22;27809;51.864;5.646;2024-01-11T06:51:32;-5.20;1.00
42141;DHT22;27809;51.864;5.646;2024-01-11T06:53:59;-5.10;1.00
42141;DHT22;27809;51.864;5.646;2024-01-11T06:56:25;-5.10;1.00
42141;DHT22;27809;51.864;5.646;2024-01-11T06:58:51;-5.00;1.00
42141;DHT22;27809;51.864;5.646;2024-01-11T07:01:17;-4.90;1.00
42141;DHT22;27809;51.864;5.646;2024-01-11T07:03:42;-4.80;1.00
42141;DHT22;27809;51.864;5.646;2024-01-11T07:06:08;-4.80;1.00
42141;DHT22;27809;51.864;5.646;2024-01-11T07:08:34;-4.80;1.00
42141;DHT22;27809;51.864;5.646;2024-01-11T07:11:01;-4.80;1.00
42141;DHT22;27809;51.864;5.646;2024-01-11T07:13:32;-4.80;1.00
42141;DHT22;27809;51.864;5.646;2024-01-11T07:15:58;-4.70;1.00
42141;DHT22;27809;51.864;5.646;2024-01-11T07:18:25;-4.70;1.00
42141;DHT22;27809;51.864;5.646;2024-01-11T07:20:51;-4.70;1.00
42141;DHT22;27809;51.864;5.646;2024-01-11T07:23:16;-4.70;1.00
42141;DHT22;27809;51.864;5.646;2024-01-11T07:25:42;-4.80;1.00
42141;DHT22;27809;51.864;5.646;2024-01-11T07:28:08;-4.90;1.00
42141;DHT22;27809;51.864;5.646;2024-01-11T07:30:34;-4.90;1.00
42141;DHT22;27809;51.864;5.646;2024-01-11T07:32:59;-5.00;1.00
42141;DHT22;27809;51.864;5.646;2024-01-11T07:35:25;-4.90;1.00
42141;DHT22;27809;51.864;5.646;2024-01-11T07:37:50;-4.90;1.00
42141;DHT22;27809;51.864;5.646;2024-01-11T07:40:16;-4.80;1.00
42141;DHT22;27809;51.864;5.646;2024-01-11T07:42:42;-4.70;1.00
42141;DHT22;27809;51.864;5.646;2024-01-11T07:45:09;-4.60;1.00
42141;DHT22;27809;51.864;5.646;2024-01-11T07:47:39;-4.50;1.00
42141;DHT22;27809;51.864;5.646;2024-01-11T07:50:09;-4.40;1.00
42141;DHT22;27809;51.864;5.646;2024-01-11T07:52:38;-4.30;1.00
42141;DHT22;27809;51.864;5.646;2024-01-11T07:55:05;-4.30;1.00
42141;DHT22;27809;51.864;5.646;2024-01-11T07:57:37;-4.30;1.00
42141;DHT22;27809;51.864;5.646;2024-01-11T08:00:06;-4.30;1.00
42141;DHT22;27809;51.864;5.646;2024-01-11T08:02:33;-4.30;1.00
42141;DHT22;27809;51.864;5.646;2024-01-11T08:04:59;-4.30;1.00
42141;DHT22;27809;51.864;5.646;2024-01-11T08:07:28;-4.30;1.00
42141;DHT22;27809;51.864;5.646;2024-01-11T08:09:54;-4.30;1.00
42141;DHT22;27809;51.864;5.646;2024-01-11T08:12:20;-4.30;1.00
42141;DHT22;27809;51.864;5.646;2024-01-11T08:14:46;-4.40;1.00
42141;DHT22;27809;51.864;5.646;2024-01-11T08:17:13;-4.30;1.00
42141;DHT22;27809;51.864;5.646;2024-01-11T08:19:42;-4.30;1.00
42141;DHT22;27809;51.864;5.646;2024-01-11T08:22:10;-4.30;1.00
42141;DHT22;27809;51.864;5.646;2024-01-11T08:24:37;-4.20;1.00
42141;DHT22;27809;51.864;5.646;2024-01-11T08:27:03;-4.20;1.00
42141;DHT22;27809;51.864;5.646;2024-01-11T08:29:29;-4.20;1.00
42141;DHT22;27809;51.864;5.646;2024-01-11T08:31:55;-4.20;1.00
42141;DHT22;27809;51.864;5.646;2024-01-11T08:34:21;-4.20;1.00
42141;DHT22;27809;51.864;5.646;2024-01-11T08:36:47;-4.10;1.00
42141;DHT22;27809;51.864;5.646;2024-01-11T08:39:13;-3.90;1.00
42141;DHT22;27809;51.864;5.646;2024-01-11T08:41:40;-3.80;1.00
42141;DHT22;27809;51.864;5.646;2024-01-11T08:44:06;-3.80;1.00
42141;DHT22;27809;51.864;5.646;2024-01-11T08:46:31;-3.70;1.00
42141;DHT22;27809;51.864;5.646;2024-01-11T08:48:59;-3.70;1.00
42141;DHT22;27809;51.864;5.646;2024-01-11T08:51:25;-3.70;1.00
42141;DHT22;27809;51.864;5.646;2024-01-11T08:53:51;-3.60;1.00
42141;DHT22;27809;51.864;5.646;2024-01-11T08:56:18;-3.70;1.00
42141;DHT22;27809;51.864;5.646;2024-01-11T08:58:44;-3.70;1.00
42141;DHT22;27809;51.864;5.646;2024-01-11T09:01:09;-3.70;1.00
42141;DHT22;27809;51.864;5.646;2024-01-11T09:03:35;-3.70;1.00
42141;DHT22;27809;51.864;5.646;2024-01-11T09:06:02;-3.60;1.00
42141;DHT22;27809;51.864;5.646;2024-01-11T09:08:27;-3.50;1.00
42141;DHT22;27809;51.864;5.646;2024-01-11T09:10:53;-3.50;1.00
42141;DHT22;27809;51.864;5.646;2024-01-11T09:13:19;-3.40;1.00
42141;DHT22;27809;51.864;5.646;2024-01-11T09:15:45;-3.40;1.00
42141;DHT22;27809;51.864;5.646;2024-01-11T09:18:10;-3.40;1.00
42141;DHT22;27809;51.864;5.646;2024-01-11T09:20:36;-3.40;1.00
42141;DHT22;27809;51.864;5.646;2024-01-11T09:23:01;-3.30;1.00
42141;DHT22;27809;51.864;5.646;2024-01-11T09:25:32;-3.30;1.00
42141;DHT22;27809;51.864;5.646;2024-01-11T09:27:57;-3.20;1.00
42141;DHT22;27809;51.864;5.646;2024-01-11T09:30:23;-3.20;1.00
42141;DHT22;27809;51.864;5.646;2024-01-11T09:32:48;-3.10;1.00
42141;DHT22;27809;51.864;5.646;2024-01-11T09:35:14;-3.10;1.00
42141;DHT22;27809;51.864;5.646;2024-01-11T09:37:40;-3.00;1.00
42141;DHT22;27809;51.864;5.646;2024-01-11T09:40:06;-3.00;1.00
42141;DHT22;27809;51.864;5.646;2024-01-11T09:42:39;-3.00;1.00
42141;DHT22;27809;51.864;5.646;2024-01-11T09:45:11;-2.80;1.10
42141;DHT22;27809;51.864;5.646;2024-01-11T09:47:38;-2.70;1.10
42141;DHT22;27809;51.864;5.646;2024-01-11T09:50:05;-2.60;1.00
42141;DHT22;27809;51.864;5.646;2024-01-11T09:52:31;-2.60;1.00
42141;DHT22;27809;51.864;5.646;2024-01-11T09:54:58;-2.50;1.00
42141;DHT22;27809;51.864;5.646;2024-01-11T09:57:32;-2.50;1.00
42141;DHT22;27809;51.864;5.646;2024-01-11T10:00:04;-2.40;1.00
42141;DHT22;27809;51.864;5.646;2024-01-11T10:02:33;-2.40;1.00
42141;DHT22;27809;51.864;5.646;2024-01-11T10:04:59;-2.30;1.00
42141;DHT22;27809;51.864;5.646;2024-01-11T10:07:24;-2.20;1.00
42141;DHT22;27809;51.864;5.646;2024-01-11T10:09:50;-2.10;1.00
42141;DHT22;27809;51.864;5.646;2024-01-11T10:12:20;-2.10;1.00
42141;DHT22;27809;51.864;5.646;2024-01-11T10:14:48;-2.00;1.00
42141;DHT22;27809;51.864;5.646;2024-01-11T10:17:14;-2.10;1.00
42141;DHT22;27809;51.864;5.646;2024-01-11T10:19:40;-2.00;1.00
42141;DHT22;27809;51.864;5.646;2024-01-11T10:22:05;-1.90;1.00
42141;DHT22;27809;51.864;5.646;2024-01-11T10:24:32;-1.90;1.00
42141;DHT22;27809;51.864;5.646;2024-01-11T10:26:58;-1.80;1.00
42141;DHT22;27809;51.864;5.646;2024-01-11T10:29:33;-1.80;1.00
42141;DHT22;27809;51.864;5.646;2024-01-11T10:31:59;-1.70;1.00
42141;DHT22;27809;51.864;5.646;2024-01-11T10:34:24;-1.70;1.00
42141;DHT22;27809;51.864;5.646;2024-01-11T10:36:53;-1.60;1.00
42141;DHT22;27809;51.864;5.646;2024-01-11T10:39:24;-1.50;1.00
42141;DHT22;27809;51.864;5.646;2024-01-11T10:41:52;-1.30;1.00
42141;DHT22;27809;51.864;5.646;2024-01-11T10:44:21;-1.20;1.00
42141;DHT22;27809;51.864;5.646;2024-01-11T10:46:49;-1.20;1.00
42141;DHT22;27809;51.864;5.646;2024-01-11T10:49:19;-1.20;1.00
42141;DHT22;27809;51.864;5.646;2024-01-11T10:52:11;-1.20;1.00
42141;DHT22;27809;51.864;5.646;2024-01-11T10:54:38;-1.10;1.00
42141;DHT22;27809;51.864;5.646;2024-01-11T10:57:05;-1.00;1.00
42141;DHT22;27809;51.864;5.646;2024-01-11T10:59:34;-0.90;1.00
42141;DHT22;27809;51.864;5.646;2024-01-11T11:02:05;-0.80;1.00
42141;DHT22;27809;51.864;5.646;2024-01-11T11:04:38;-0.80;1.00
42141;DHT22;27809;51.864;5.646;2024-01-11T11:07:04;-0.60;1.00
42141;DHT22;27809;51.864;5.646;2024-01-11T11:09:34;-0.50;1.00
42141;DHT22;27809;51.864;5.646;2024-01-11T11:12:00;-0.50;1.00
42141;DHT22;27809;51.864;5.646;2024-01-11T11:14:28;-0.50;1.00
42141;DHT22;27809;51.864;5.646;2024-01-11T11:16:53;-0.60;1.00
42141;DHT22;27809;51.864;5.646;2024-01-11T11:19:20;-0.70;1.00
42141;DHT22;27809;51.864;5.646;2024-01-11T11:21:48;-0.70;1.00
42141;DHT22;27809;51.864;5.646;2024-01-11T11:24:14;-0.60;1.00
42141;DHT22;27809;51.864;5.646;2024-01-11T11:26:42;-0.60;1.00
42141;DHT22;27809;51.864;5.646;2024-01-11T11:29:08;-0.60;1.00
42141;DHT22;27809;51.864;5.646;2024-01-11T11:34:00;-0.50;1.00
42141;DHT22;27809;51.864;5.646;2024-01-11T11:36:29;-0.50;1.00
42141;DHT22;27809;51.864;5.646;2024-01-11T11:38:57;-0.30;1.00
42141;DHT22;27809;51.864;5.646;2024-01-11T11:41:26;-0.10;1.00
42141;DHT22;27809;51.864;5.646;2024-01-11T11:43:52;0.30;3.90
42141;DHT22;27809;51.864;5.646;2024-01-11T11:46:21;0.50;3.40
42141;DHT22;27809;51.864;5.646;2024-01-11T11:51:16;0.60;3.50
42141;DHT22;27809;51.864;5.646;2024-01-11T11:53:42;0.70;3.80
42141;DHT22;27809;51.864;5.646;2024-01-11T11:56:09;0.70;3.90
42141;DHT22;27809;51.864;5.646;2024-01-11T11:58:36;0.80;4.20
42141;DHT22;27809;51.864;5.646;2024-01-11T12:01:02;0.80;4.40
42141;DHT22;27809;51.864;5.646;2024-01-11T12:03:46;0.90;4.50
42141;DHT22;27809;51.864;5.646;2024-01-11T12:06:15;0.90;4.90
42141;DHT22;27809;51.864;5.646;2024-01-11T12:08:42;1.00;5.30
42141;DHT22;27809;51.864;5.646;2024-01-11T12:11:08;1.00;6.70
42141;DHT22;27809;51.864;5.646;2024-01-11T12:13:35;1.20;7.70
42141;DHT22;27809;51.864;5.646;2024-01-11T12:16:01;1.60;11.80
42141;DHT22;27809;51.864;5.646;2024-01-11T12:18:27;2.00;11.40
42141;DHT22;27809;51.864;5.646;2024-01-11T12:20:52;2.20;12.50
42141;DHT22;27809;51.864;5.646;2024-01-11T12:23:19;2.50;13.90
42141;DHT22;27809;51.864;5.646;2024-01-11T12:25:44;2.50;11.20
42141;DHT22;27809;51.864;5.646;2024-01-11T12:28:10;2.40;9.10
42141;DHT22;27809;51.864;5.646;2024-01-11T12:30:36;2.20;8.00
42141;DHT22;27809;51.864;5.646;2024-01-11T12:33:03;1.90;6.70
42141;DHT22;27809;51.864;5.646;2024-01-11T12:35:30;1.70;7.10
42141;DHT22;27809;51.864;5.646;2024-01-11T12:37:59;1.60;8.20
42141;DHT22;27809;51.864;5.646;2024-01-11T12:40:26;1.70;10.80
42141;DHT22;27809;51.864;5.646;2024-01-11T12:42:53;2.00;15.90
42141;DHT22;27809;51.864;5.646;2024-01-11T12:45:22;2.20;14.60
42141;DHT22;27809;51.864;5.646;2024-01-11T12:47:48;2.00;11.90
42141;DHT22;27809;51.864;5.646;2024-01-11T12:50:13;1.80;10.90
42141;DHT22;27809;51.864;5.646;2024-01-11T12:52:39;1.70;11.40
42141;DHT22;27809;51.864;5.646;2024-01-11T12:55:07;1.80;13.40
42141;DHT22;27809;51.864;5.646;2024-01-11T12:57:34;1.90;13.30
42141;DHT22;27809;51.864;5.646;2024-01-11T13:00:13;1.90;13.20
42141;DHT22;27809;51.864;5.646;2024-01-11T13:02:39;1.80;12.80
42141;DHT22;27809;51.864;5.646;2024-01-11T13:05:06;1.80;12.80
42141;DHT22;27809;51.864;5.646;2024-01-11T13:07:32;1.70;13.00
42141;DHT22;27809;51.864;5.646;2024-01-11T13:09:59;1.70;13.20
42141;DHT22;27809;51.864;5.646;2024-01-11T13:12:25;1.70;13.50
42141;DHT22;27809;51.864;5.646;2024-01-11T13:14:51;1.70;14.00
42141;DHT22;27809;51.864;5.646;2024-01-11T13:17:18;1.70;14.60
42141;DHT22;27809;51.864;5.646;2024-01-11T13:19:44;1.70;14.90
42141;DHT22;27809;51.864;5.646;2024-01-11T13:22:10;1.70;14.90
42141;DHT22;27809;51.864;5.646;2024-01-11T13:24:36;1.80;15.30
42141;DHT22;27809;51.864;5.646;2024-01-11T13:27:01;1.80;15.60
42141;DHT22;27809;51.864;5.646;2024-01-11T13:29:27;1.80;15.60
42141;DHT22;27809;51.864;5.646;2024-01-11T13:31:52;1.80;15.70
42141;DHT22;27809;51.864;5.646;2024-01-11T13:34:18;1.80;15.60
42141;DHT22;27809;51.864;5.646;2024-01-11T13:36:44;1.80;15.40
42141;DHT22;27809;51.864;5.646;2024-01-11T13:39:10;1.80;15.40
42141;DHT22;27809;51.864;5.646;2024-01-11T13:41:36;1.80;15.60
42141;DHT22;27809;51.864;5.646;2024-01-11T13:44:02;1.80;15.70
42141;DHT22;27809;51.864;5.646;2024-01-11T13:46:28;1.80;15.80
42141;DHT22;27809;51.864;5.646;2024-01-11T13:48:53;1.80;16.20
42141;DHT22;27809;51.864;5.646;2024-01-11T13:51:19;2.10;18.80
42141;DHT22;27809;51.864;5.646;2024-01-11T13:53:44;2.20;18.20
42141;DHT22;27809;51.864;5.646;2024-01-11T13:56:10;2.30;17.10
42141;DHT22;27809;51.864;5.646;2024-01-11T13:58:36;2.20;16.40
42141;DHT22;27809;51.864;5.646;2024-01-11T14:01:02;2.20;16.00
42141;DHT22;27809;51.864;5.646;2024-01-11T14:03:28;2.20;15.90
42141;DHT22;27809;51.864;5.646;2024-01-11T14:05:53;2.20;15.80
42141;DHT22;27809;51.864;5.646;2024-01-11T14:08:19;2.20;15.80
42141;DHT22;27809;51.864;5.646;2024-01-11T14:10:44;2.20;15.80
42141;DHT22;27809;51.864;5.646;2024-01-11T14:13:10;2.20;15.60
42141;DHT22;27809;51.864;5.646;2024-01-11T14:15:36;2.20;15.30
42141;DHT22;27809;51.864;5.646;2024-01-11T14:18:02;2.10;15.40
42141;DHT22;27809;51.864;5.646;2024-01-11T14:20:28;2.10;15.50
42141;DHT22;27809;51.864;5.646;2024-01-11T14:22:54;2.20;18.60
42141;DHT22;27809;51.864;5.646;2024-01-11T14:25:21;3.80;42.30
42141;DHT22;27809;51.864;5.646;2024-01-11T14:27:47;4.50;29.70
42141;DHT22;27809;51.864;5.646;2024-01-11T14:30:14;4.50;19.60
42141;DHT22;27809;51.864;5.646;2024-01-11T14:32:40;4.10;13.30
42141;DHT22;27809;51.864;5.646;2024-01-11T14:35:09;3.80;10.60
42141;DHT22;27809;51.864;5.646;2024-01-11T14:37:36;3.50;9.50
42141;DHT22;27809;51.864;5.646;2024-01-11T14:40:03;3.20;9.50
42141;DHT22;27809;51.864;5.646;2024-01-11T14:42:29;3.00;9.80
42141;DHT22;27809;51.864;5.646;2024-01-11T14:44:55;2.90;10.20
42141;DHT22;27809;51.864;5.646;2024-01-11T14:47:22;2.80;10.70
42141;DHT22;27809;51.864;5.646;2024-01-11T14:49:47;2.60;11.00
42141;DHT22;27809;51.864;5.646;2024-01-11T14:52:13;2.60;11.30
42141;DHT22;27809;51.864;5.646;2024-01-11T14:54:39;2.40;11.60
42141;DHT22;27809;51.864;5.646;2024-01-11T14:57:04;2.40;12.20
42141;DHT22;27809;51.864;5.646;2024-01-11T14:59:31;2.30;12.30
42141;DHT22;27809;51.864;5.646;2024-01-11T15:01:58;2.20;12.70
42141;DHT22;27809;51.864;5.646;2024-01-11T15:04:25;2.20;13.20
42141;DHT22;27809;51.864;5.646;2024-01-11T15:06:50;2.10;13.50
42141;DHT22;27809;51.864;5.646;2024-01-11T15:09:16;2.10;13.80
42141;DHT22;27809;51.864;5.646;2024-01-11T15:11:42;2.10;14.00
42141;DHT22;27809;51.864;5.646;2024-01-11T15:14:08;2.10;14.30
42141;DHT22;27809;51.864;5.646;2024-01-11T15:16:37;2.00;14.70
42141;DHT22;27809;51.864;5.646;2024-01-11T15:19:03;2.00;15.10
42141;DHT22;27809;51.864;5.646;2024-01-11T15:21:29;2.10;15.40
42141;DHT22;27809;51.864;5.646;2024-01-11T15:23:56;2.10;15.50
42141;DHT22;27809;51.864;5.646;2024-01-11T15:26:22;2.10;15.60
42141;DHT22;27809;51.864;5.646;2024-01-11T15:28:48;2.00;15.40
42141;DHT22;27809;51.864;5.646;2024-01-11T15:31:13;2.00;15.40
42141;DHT22;27809;51.864;5.646;2024-01-11T15:33:40;2.00;15.50
42141;DHT22;27809;51.864;5.646;2024-01-11T15:36:05;2.00;15.50
42141;DHT22;27809;51.864;5.646;2024-01-11T15:38:31;2.00;15.80
42141;DHT22;27809;51.864;5.646;2024-01-11T15:40:57;2.00;16.00
42141;DHT22;27809;51.864;5.646;2024-01-11T15:43:22;2.00;16.70
42141;DHT22;27809;51.864;5.646;2024-01-11T15:45:49;2.00;16.50